createdAt,value
2023-04-25T04:15:51.819Z,11.80
2023-04-25T04:18:26.407Z,12.10
2023-04-25T04:20:57.187Z,10.20
2023-04-25T04:23:28.244Z,9.90
2023-04-25T04:25:57.686Z,11.54
2023-04-25T04:28:26.425Z,10.52
2023-04-25T04:30:56.990Z,11.24
2023-04-25T04:33:26.283Z,11.32
2023-04-25T04:35:54.689Z,11.35
2023-04-25T04:38:23.119Z,12.12
2023-04-25T04:40:51.396Z,11.43
2023-04-25T04:43:21.347Z,11.32
2023-04-25T04:45:51.036Z,12.17
2023-04-25T04:48:20.301Z,11.51
2023-04-25T04:50:51.220Z,10.40
2023-04-25T04:53:20.650Z,11.47
2023-04-25T04:55:48.640Z,11.23
2023-04-25T04:58:17.471Z,12.28
2023-04-25T05:00:47.481Z,11.96
2023-04-25T05:03:15.558Z,11.56
2023-04-25T05:05:45.826Z,11.50
2023-04-25T05:08:13.771Z,10.54
2023-04-25T05:10:42.684Z,12.35
2023-04-25T05:13:30.440Z,12.34
2023-04-25T05:16:00.450Z,9.75
2023-04-25T05:18:28.285Z,10.36
2023-04-25T05:20:57.632Z,12.36
2023-04-25T05:23:26.025Z,10.39
2023-04-25T05:25:55.890Z,12.12
2023-04-25T05:28:23.663Z,11.95
2023-04-25T05:30:51.644Z,11.72
2023-04-25T05:33:19.417Z,12.00
2023-04-25T05:35:47.478Z,10.89
2023-04-25T05:38:16.796Z,11.70
2023-04-25T05:40:44.681Z,10.83
2023-04-25T05:43:30.376Z,12.20
2023-04-25T05:45:58.353Z,11.70
2023-04-25T05:48:29.511Z,11.70
2023-04-25T05:50:58.358Z,10.36
2023-04-25T05:53:33.318Z,11.69
2023-04-25T05:56:01.653Z,13.06
2023-04-25T05:59:31.828Z,13.16
2023-04-25T06:02:10.360Z,13.22
2023-04-25T06:04:46.586Z,11.36
2023-04-25T06:07:26.319Z,11.29
2023-04-25T06:09:56.052Z,12.67
2023-04-25T06:12:45.205Z,12.77
2023-04-25T06:15:27.273Z,12.63
2023-04-25T06:17:56.964Z,12.18
2023-04-25T06:20:26.430Z,13.39
2023-04-25T06:22:54.765Z,12.21
2023-04-25T06:25:45.461Z,11.45
2023-04-25T06:28:13.607Z,13.88
2023-04-25T06:30:56.475Z,13.88
2023-04-25T06:33:25.453Z,11.42
2023-04-25T06:35:53.957Z,14.75
2023-04-25T06:39:03.195Z,14.81
2023-04-25T06:41:51.187Z,11.44
2023-04-25T06:44:37.903Z,13.02
2023-04-25T06:47:15.256Z,12.44
2023-04-25T06:49:43.310Z,14.96
2023-04-25T06:52:19.626Z,15.03
2023-04-25T06:54:49.718Z,14.58
2023-04-25T06:57:18.968Z,15.45
2023-04-25T06:59:47.227Z,14.14
2023-04-25T07:02:21.135Z,14.05
2023-04-25T07:04:49.093Z,13.67
2023-04-25T07:07:18.600Z,15.11
2023-04-25T07:09:46.522Z,13.87
2023-04-25T07:12:14.412Z,16.00
2023-04-25T07:14:43.769Z,15.65
2023-04-25T07:17:13.395Z,14.56
2023-04-25T07:19:44.224Z,16.71
2023-04-25T07:22:14.897Z,16.49
2023-04-25T07:24:52.788Z,17.13
2023-04-25T07:30:04.953Z,17.29
2023-04-25T07:36:07.780Z,19.19
2023-04-25T07:38:57.583Z,18.75
2023-04-25T07:44:49.913Z,17.77
2023-04-25T07:48:01.343Z,17.23
2023-04-25T07:50:39.185Z,14.88
2023-04-25T07:53:09.995Z,14.50
2023-04-25T07:55:41.463Z,14.50
2023-04-25T07:58:12.924Z,14.40
2023-04-25T08:00:43.200Z,14.23
2023-04-25T08:03:29.082Z,13.86
2023-04-25T08:05:58.972Z,17.00
2023-04-25T08:08:27.059Z,16.88
2023-04-25T08:15:20.225Z,14.48
2023-04-25T08:17:48.637Z,16.90
2023-04-25T08:20:16.739Z,16.78
2023-04-25T08:22:46.241Z,15.79
2023-04-25T08:25:15.582Z,18.71
2023-04-25T08:27:44.020Z,18.51
2023-04-25T08:30:24.464Z,19.66
2023-04-25T08:32:52.701Z,19.92
2023-04-25T08:38:03.771Z,20.04
2023-04-25T08:40:32.328Z,17.75
2023-04-25T08:43:21.794Z,18.43
2023-04-25T08:45:49.777Z,19.08
2023-04-25T08:48:18.326Z,19.06
2023-04-25T08:50:47.719Z,19.02
2023-04-25T08:53:22.781Z,16.54
2023-04-25T08:55:56.651Z,17.88
2023-04-25T08:58:25.232Z,18.66
2023-04-25T09:00:53.846Z,17.71
2023-04-25T09:03:22.228Z,17.75
2023-04-25T09:05:51.139Z,17.53
2023-04-25T09:08:51.600Z,17.86
2023-04-25T09:11:23.969Z,17.70
2023-04-25T09:13:52.171Z,17.65
2023-04-25T09:16:22.808Z,18.02
2023-04-25T09:23:10.913Z,19.00
2023-04-25T09:43:50.532Z,18.67
2023-04-25T09:46:26.449Z,18.45
2023-04-25T09:48:55.224Z,17.71
2023-04-25T10:06:19.401Z,20.60
2023-04-25T10:08:47.915Z,20.58
2023-04-25T10:11:16.962Z,21.27
2023-04-25T10:13:44.797Z,22.60
2023-04-25T10:16:13.049Z,24.64
2023-04-25T10:18:41.129Z,24.12
2023-04-25T10:21:09.354Z,23.59
2023-04-25T10:23:38.940Z,23.25
2023-04-25T10:26:08.624Z,23.58
2023-04-25T10:28:57.571Z,22.78
2023-04-25T10:31:25.547Z,19.94
2023-04-25T10:34:52.920Z,21.31
2023-04-25T10:37:23.568Z,19.82
2023-04-25T10:39:55.776Z,19.22
2023-04-25T10:45:04.245Z,20.56
2023-04-25T13:02:44.704Z,17.98
2023-04-25T13:10:15.731Z,17.48
2023-04-25T13:24:12.893Z,17.76
2023-04-25T14:04:13.558Z,16.10
2023-04-25T14:51:33.642Z,14.81
2023-04-25T14:53:00.778Z,16.71
2023-04-25T15:10:19.451Z,13.36
2023-04-25T16:08:42.220Z,15.64
2023-04-25T16:54:06.995Z,16.05
2023-04-25T17:01:25.626Z,13.07
2023-04-25T17:04:33.106Z,15.88
2023-04-25T17:07:11.466Z,13.88
2023-04-25T17:27:53.401Z,15.17
2023-04-25T17:30:23.768Z,12.47
2023-04-25T17:51:31.467Z,14.86
2023-04-25T18:03:11.656Z,13.18
